Time;durP1;ratioP1;P1;durP2;ratioP2;P2;SDS_P1;SDS_P2;PMS_P1;PMS_P2;Temp;Humidity;BMP_temperature;BMP_pressure;BME280_temperature;BME280_humidity;BME280_pressure;Samples;Min_cycle;Max_cycle;Signal;HPM_P1;HPM_P2
2023/08/20 00:01:45;;;;;;;11.57;8.40;;;22.70;99.90;;;;;;4945748;28;20480;-68
2023/08/20 00:04:15;;;;;;;9.50;6.80;;;22.70;99.90;;;;;;4949719;28;21037;-68
2023/08/20 00:06:43;;;;;;;10.97;6.90;;;22.70;99.90;;;;;;4945016;28;21030;-71
2023/08/20 00:09:09;;;;;;;8.03;7.20;;;22.70;99.90;;;;;;4937889;28;20491;-72
2023/08/20 00:11:39;;;;;;;9.47;7.13;;;22.70;99.90;;;;;;4948460;28;20556;-71
2023/08/20 00:14:06;;;;;;;10.33;6.83;;;22.70;99.90;;;;;;4950475;28;20482;-71
2023/08/20 00:16:34;;;;;;;7.97;5.93;;;22.70;99.90;;;;;;4948381;28;20916;-69
2023/08/20 00:19:02;;;;;;;8.10;6.50;;;22.60;99.90;;;;;;4950677;28;21084;-71
2023/08/20 00:21:31;;;;;;;7.63;6.60;;;22.60;99.90;;;;;;4937053;28;20486;-71
2023/08/20 00:23:58;;;;;;;7.23;6.33;;;22.60;99.90;;;;;;4945776;28;20924;-71
2023/08/20 00:26:26;;;;;;;5.70;5.20;;;22.60;99.90;;;;;;4958061;28;20953;-70
2023/08/20 00:28:53;;;;;;;8.20;7.27;;;22.60;99.90;;;;;;4944568;28;21103;-71
2023/08/20 00:31:20;;;;;;;9.10;7.90;;;22.50;99.90;;;;;;4944335;28;20487;-71
2023/08/20 00:33:47;;;;;;;9.47;7.30;;;22.40;99.90;;;;;;4958427;28;20472;-71
2023/08/20 00:36:14;;;;;;;10.10;6.77;;;22.30;99.90;;;;;;4950796;28;20488;-71
2023/08/20 00:38:42;;;;;;;8.83;5.87;;;22.30;99.90;;;;;;4946240;28;20980;-71
2023/08/20 00:41:09;;;;;;;6.30;5.70;;;22.10;99.90;;;;;;4948160;28;20466;-72
2023/08/20 00:43:36;;;;;;;9.60;6.83;;;22.10;99.90;;;;;;4935544;28;20520;-71
2023/08/20 00:46:03;;;;;;;6.47;5.27;;;22.00;99.90;;;;;;4948281;28;20478;-69
2023/08/20 00:48:30;;;;;;;7.10;6.40;;;22.10;99.90;;;;;;4949402;28;20883;-69
2023/08/20 00:50:58;;;;;;;8.30;5.43;;;22.10;99.90;;;;;;4952096;28;21162;-69
2023/08/20 00:53:25;;;;;;;7.43;5.77;;;22.10;99.90;;;;;;4950678;28;20442;-69
2023/08/20 00:55:54;;;;;;;10.43;6.27;;;22.10;99.90;;;;;;4934744;28;20555;-69
2023/08/20 00:58:21;;;;;;;6.37;5.77;;;22.10;99.90;;;;;;4944380;28;21443;-69
2023/08/20 01:00:47;;;;;;;14.53;6.73;;;22.10;99.90;;;;;;4955200;23;20534;-67
2023/08/20 01:03:15;;;;;;;8.50;6.50;;;22.20;99.90;;;;;;5031398;28;20529;-67
2023/08/20 01:05:49;;;;;;;7.70;6.37;;;22.20;99.90;;;;;;5019737;28;20470;-67
2023/08/20 01:08:27;;;;;;;5.63;5.10;;;22.10;99.90;;;;;;5012789;28;20592;-67
2023/08/20 01:11:02;;;;;;;18.33;6.37;;;22.10;99.90;;;;;;5024924;28;20558;-67
2023/08/20 01:13:29;;;;;;;10.47;6.97;;;21.90;99.90;;;;;;5031605;28;20465;-67
2023/08/20 01:15:56;;;;;;;10.70;5.60;;;21.80;99.90;;;;;;5034418;28;20470;-66
2023/08/20 01:18:24;;;;;;;5.70;4.83;;;21.80;99.90;;;;;;5034163;28;20865;-67
2023/08/20 01:20:59;;;;;;;7.07;4.93;;;21.70;99.90;;;;;;5031012;28;20585;-67
2023/08/20 01:23:50;;;;;;;9.20;7.00;;;21.40;99.90;;;;;;5019913;28;20517;-67
2023/08/20 01:26:41;;;;;;;12.97;8.20;;;21.20;99.90;;;;;;5011921;28;20854;-68
2023/08/20 01:29:11;;;;;;;16.37;8.77;;;21.10;99.90;;;;;;5027921;28;21419;-67
2023/08/20 01:31:39;;;;;;;11.87;7.73;;;21.10;99.90;;;;;;5021861;28;20849;-66
2023/08/20 01:34:06;;;;;;;8.27;7.20;;;21.10;99.90;;;;;;5025926;28;20903;-67
2023/08/20 01:36:33;;;;;;;7.03;6.37;;;21.00;99.90;;;;;;5026440;28;20457;-67
2023/08/20 01:39:00;;;;;;;8.57;6.40;;;21.00;99.90;;;;;;5030505;28;20550;-67
2023/08/20 01:41:27;;;;;;;9.93;7.53;;;21.10;99.90;;;;;;5025781;28;20470;-67
2023/08/20 01:43:54;;;;;;;7.50;6.67;;;21.20;99.90;;;;;;5023751;28;20566;-66
2023/08/20 01:46:22;;;;;;;8.10;6.33;;;21.40;99.90;;;;;;5023965;28;21094;-67
2023/08/20 01:48:49;;;;;;;8.83;6.40;;;21.30;99.90;;;;;;5030979;28;20483;-67
2023/08/20 01:51:16;;;;;;;8.63;7.03;;;21.40;99.90;;;;;;5027489;28;20605;-67
2023/08/20 01:53:43;;;;;;;16.30;8.37;;;21.30;99.90;;;;;;5028839;28;20490;-67
2023/08/20 01:56:12;;;;;;;9.00;7.90;;;21.20;99.90;;;;;;5029287;28;20868;-67
2023/08/20 01:58:39;;;;;;;12.67;7.97;;;21.20;99.90;;;;;;5030458;28;20481;-67
2023/08/20 02:01:06;;;;;;;10.17;7.83;;;21.20;99.90;;;;;;5010450;28;20865;-66
2023/08/20 02:03:36;;;;;;;6.20;5.60;;;21.30;99.90;;;;;;5036452;28;20891;-66
2023/08/20 02:06:03;;;;;;;5.73;5.13;;;21.30;99.90;;;;;;5037254;28;21109;-67
2023/08/20 02:08:30;;;;;;;7.97;6.50;;;21.30;99.90;;;;;;5024633;28;21005;-68
2023/08/20 02:11:01;;;;;;;10.03;7.83;;;21.30;99.90;;;;;;5032475;28;20459;-67
2023/08/20 02:13:28;;;;;;;10.53;6.23;;;21.20;99.90;;;;;;5014452;28;20551;-66
2023/08/20 02:16:02;;;;;;;9.00;7.07;;;21.30;99.90;;;;;;5029781;28;20474;-68
2023/08/20 02:18:29;;;;;;;8.30;6.00;;;21.30;99.90;;;;;;5020151;28;20479;-68
2023/08/20 02:20:58;;;;;;;12.90;6.00;;;21.40;99.90;;;;;;5015947;28;22673;-68
2023/08/20 02:23:25;;;;;;;8.20;6.67;;;21.40;99.90;;;;;;5022287;28;20482;-68
2023/08/20 02:25:52;;;;;;;9.10;7.60;;;21.40;99.90;;;;;;5022443;28;20500;-68
2023/08/20 02:28:19;;;;;;;7.60;6.00;;;21.30;99.90;;;;;;5031209;28;20460;-67
2023/08/20 02:30:47;;;;;;;13.43;7.13;;;21.20;99.90;;;;;;5006031;28;20489;-68
2023/08/20 02:33:14;;;;;;;9.63;7.10;;;21.30;99.90;;;;;;5029326;28;20850;-68
2023/08/20 02:35:47;;;;;;;11.10;6.30;;;21.30;99.90;;;;;;5023397;28;20856;-67
2023/08/20 02:38:16;;;;;;;9.43;6.03;;;21.40;99.90;;;;;;5031937;28;20589;-68
2023/08/20 02:40:43;;;;;;;8.60;6.67;;;21.50;99.90;;;;;;5022404;28;20562;-68
2023/08/20 02:43:10;;;;;;;16.63;6.93;;;21.40;99.90;;;;;;5022358;28;20498;-68
2023/08/20 02:45:42;;;;;;;7.17;6.47;;;21.40;99.90;;;;;;4995540;28;20492;-68
2023/08/20 02:48:09;;;;;;;7.70;6.93;;;21.40;99.90;;;;;;5038248;28;20481;-68
2023/08/20 02:50:36;;;;;;;10.00;7.67;;;21.40;99.90;;;;;;5031564;28;20472;-68
2023/08/20 02:53:04;;;;;;;8.17;6.77;;;21.30;99.90;;;;;;5028708;28;20546;-68
2023/08/20 02:55:33;;;;;;;6.80;6.10;;;21.30;99.90;;;;;;5014962;28;20912;-68
2023/08/20 02:58:00;;;;;;;9.80;5.87;;;21.30;99.90;;;;;;5014931;28;20836;-68
2023/08/20 03:00:28;;;;;;;20.23;4.93;;;21.30;99.90;;;;;;5023625;28;20518;-68
2023/08/20 03:02:55;;;;;;;6.20;5.60;;;21.30;99.90;;;;;;5028874;28;20493;-69
2023/08/20 03:05:22;;;;;;;11.30;7.00;;;21.20;99.90;;;;;;5034385;28;20490;-67
2023/08/20 03:07:49;;;;;;;7.13;6.07;;;21.20;99.90;;;;;;5033693;28;20473;-67
2023/08/20 03:10:16;;;;;;;10.10;7.43;;;21.00;99.90;;;;;;5027301;28;20896;-67
2023/08/20 03:12:44;;;;;;;10.07;6.43;;;21.00;99.90;;;;;;5005316;28;20803;-68
2023/08/20 03:15:11;;;;;;;10.43;7.43;;;21.00;99.90;;;;;;5023405;28;20487;-69
2023/08/20 03:17:38;;;;;;;6.70;6.00;;;21.10;99.90;;;;;;5019217;28;20932;-68
2023/08/20 03:20:06;;;;;;;7.80;5.70;;;21.10;99.90;;;;;;5018381;28;21063;-68
2023/08/20 03:22:34;;;;;;;8.20;6.37;;;21.10;99.90;;;;;;5003095;28;20490;-68
2023/08/20 03:25:01;;;;;;;6.40;5.37;;;21.10;99.90;;;;;;5017328;28;20449;-69
2023/08/20 03:27:28;;;;;;;11.23;6.13;;;21.10;99.90;;;;;;5034870;28;20527;-68
2023/08/20 03:29:56;;;;;;;7.17;6.27;;;21.10;99.90;;;;;;5030529;28;20566;-68
2023/08/20 03:32:23;;;;;;;9.47;6.50;;;21.00;99.90;;;;;;5032315;28;20491;-69
2023/08/20 03:34:50;;;;;;;10.93;7.10;;;20.90;99.90;;;;;;5028371;28;20498;-68
2023/08/20 03:37:17;;;;;;;8.33;6.90;;;20.90;99.90;;;;;;5023449;28;20895;-67
2023/08/20 03:39:44;;;;;;;10.90;7.53;;;20.80;99.90;;;;;;5031318;28;20555;-67
2023/08/20 03:42:11;;;;;;;9.33;6.03;;;20.80;99.90;;;;;;5035584;28;21079;-67
2023/08/20 03:44:38;;;;;;;6.67;5.90;;;20.80;99.90;;;;;;5031523;28;20955;-67
2023/08/20 03:47:07;;;;;;;7.93;6.70;;;20.90;99.90;;;;;;5012433;28;20962;-68
2023/08/20 03:49:34;;;;;;;9.90;6.20;;;20.80;99.90;;;;;;5044811;28;20559;-67
2023/08/20 03:52:01;;;;;;;7.30;5.40;;;20.80;99.90;;;;;;5027752;28;20574;-69
2023/08/20 03:54:29;;;;;;;8.83;6.93;;;20.80;99.90;;;;;;5029492;28;20552;-68
2023/08/20 03:56:56;;;;;;;10.00;6.80;;;20.80;99.90;;;;;;5031481;28;20490;-67
2023/08/20 03:59:23;;;;;;;7.70;6.83;;;20.80;99.90;;;;;;4990706;28;20566;-68
2023/08/20 04:01:51;;;;;;;8.13;6.97;;;20.90;99.90;;;;;;5004394;28;20547;-67
2023/08/20 04:04:20;;;;;;;10.73;6.40;;;20.90;99.90;;;;;;5035095;28;20489;-67
2023/08/20 04:06:47;;;;;;;8.87;6.63;;;21.10;99.90;;;;;;5036523;28;20487;-68
2023/08/20 04:09:14;;;;;;;8.10;6.60;;;21.10;99.90;;;;;;5028146;28;20464;-67
2023/08/20 04:11:41;;;;;;;11.53;7.00;;;21.10;99.90;;;;;;5001792;28;21044;-67
2023/08/20 04:14:08;;;;;;;11.93;6.30;;;21.10;99.90;;;;;;5002805;28;20849;-67
2023/08/20 04:16:35;;;;;;;12.60;6.80;;;21.00;99.90;;;;;;5022035;28;20933;-67
2023/08/20 04:19:02;;;;;;;8.93;6.53;;;21.10;99.90;;;;;;5008129;28;20484;-67
2023/08/20 04:21:30;;;;;;;9.77;6.27;;;21.00;99.90;;;;;;5009758;28;20866;-67
2023/08/20 04:23:57;;;;;;;12.73;8.13;;;21.00;99.90;;;;;;4990483;28;20570;-67
2023/08/20 04:26:24;;;;;;;7.83;6.73;;;21.10;99.90;;;;;;5023806;28;20589;-67
2023/08/20 04:28:51;;;;;;;10.07;7.40;;;21.20;99.90;;;;;;5028955;28;20849;-66
2023/08/20 04:31:18;;;;;;;7.00;6.40;;;21.20;99.90;;;;;;5013030;28;20478;-68
2023/08/20 04:33:46;;;;;;;12.70;6.97;;;21.30;99.90;;;;;;5020216;28;20485;-67
2023/08/20 04:36:13;;;;;;;10.23;7.30;;;21.20;99.90;;;;;;5021793;28;20481;-67
2023/08/20 04:38:42;;;;;;;11.53;6.30;;;21.20;99.90;;;;;;5027313;28;20493;-67
2023/08/20 04:41:08;;;;;;;10.70;6.17;;;21.20;99.90;;;;;;5018047;28;20482;-67
2023/08/20 04:43:35;;;;;;;7.40;6.30;;;21.20;99.90;;;;;;5019393;28;20574;-67
2023/08/20 04:46:02;;;;;;;8.13;7.33;;;21.20;99.90;;;;;;5022181;28;20501;-67
2023/08/20 04:48:29;;;;;;;13.77;7.13;;;21.20;99.90;;;;;;5038331;28;21006;-69
2023/08/20 04:50:56;;;;;;;11.77;7.10;;;21.10;99.90;;;;;;5023645;28;20492;-69
2023/08/20 04:53:23;;;;;;;17.97;7.50;;;21.20;99.90;;;;;;5034035;28;21099;-68
2023/08/20 04:55:52;;;;;;;11.67;7.30;;;21.20;99.90;;;;;;5025093;28;21002;-69
2023/08/20 04:58:18;;;;;;;11.67;8.57;;;21.00;99.90;;;;;;5028799;28;20486;-67
2023/08/20 05:00:45;;;;;;;16.03;7.30;;;20.90;99.90;;;;;;5026058;28;20482;-67
2023/08/20 05:03:12;;;;;;;7.80;6.80;;;21.00;99.90;;;;;;5036329;28;20476;-67
2023/08/20 05:05:39;;;;;;;7.90;7.10;;;20.90;99.90;;;;;;5026198;28;20452;-67
2023/08/20 05:08:07;;;;;;;20.50;6.70;;;21.00;99.90;;;;;;5017014;28;20571;-70
2023/08/20 05:10:36;;;;;;;9.27;7.00;;;21.10;99.90;;;;;;5041658;28;21014;-69
2023/08/20 05:13:05;;;;;;;8.30;6.83;;;21.10;99.90;;;;;;5037318;28;20784;-69
2023/08/20 05:15:32;;;;;;;10.30;6.53;;;21.20;99.90;;;;;;5030802;28;21131;-69
2023/08/20 05:17:59;;;;;;;10.37;8.23;;;21.30;99.90;;;;;;5026277;28;20568;-68
2023/08/20 05:20:26;;;;;;;10.57;7.83;;;21.30;99.90;;;;;;5027673;28;20457;-68
2023/08/20 05:22:53;;;;;;;11.40;7.30;;;21.40;99.90;;;;;;5033767;28;20910;-67
2023/08/20 05:25:20;;;;;;;9.97;6.90;;;21.50;99.90;;;;;;5022741;28;20486;-67
2023/08/20 05:27:47;;;;;;;10.40;7.00;;;21.50;99.90;;;;;;5027463;28;20756;-69
2023/08/20 05:30:15;;;;;;;11.23;6.50;;;21.60;99.90;;;;;;5020467;28;20547;-69
2023/08/20 05:32:42;;;;;;;11.07;7.30;;;21.60;99.90;;;;;;5016943;28;20457;-70
2023/08/20 05:35:09;;;;;;;10.17;7.70;;;21.60;99.90;;;;;;5026029;28;20494;-69
2023/08/20 05:37:36;;;;;;;8.40;6.87;;;21.70;99.90;;;;;;5037766;28;20569;-69
2023/08/20 05:40:03;;;;;;;10.40;7.00;;;21.70;99.90;;;;;;5019756;28;20483;-69
2023/08/20 05:42:30;;;;;;;9.17;7.80;;;21.70;99.90;;;;;;5018728;28;20499;-69
2023/08/20 05:44:57;;;;;;;10.33;8.27;;;21.70;99.90;;;;;;5021712;28;20512;-69
2023/08/20 05:47:25;;;;;;;9.03;7.37;;;21.70;99.90;;;;;;4998841;28;20580;-69
2023/08/20 05:49:52;;;;;;;12.17;7.90;;;21.80;99.90;;;;;;5017011;28;20557;-69
2023/08/20 05:52:19;;;;;;;9.90;7.30;;;21.80;99.90;;;;;;5023545;28;20569;-69
2023/08/20 05:54:46;;;;;;;9.00;8.10;;;21.80;99.90;;;;;;5036309;28;20666;-69
2023/08/20 05:57:13;;;;;;;13.73;7.67;;;21.80;99.90;;;;;;5028357;28;20468;-69
2023/08/20 05:59:40;;;;;;;9.03;7.93;;;21.80;99.90;;;;;;5029573;28;20476;-69
2023/08/20 06:02:07;;;;;;;10.80;7.83;;;22.00;99.90;;;;;;5030681;28;20488;-70
2023/08/20 06:04:35;;;;;;;10.57;9.30;;;22.00;99.90;;;;;;5028961;28;21269;-69
2023/08/20 06:07:02;;;;;;;11.13;8.50;;;22.30;99.90;;;;;;5035173;28;20734;-69
2023/08/20 06:09:29;;;;;;;12.60;9.83;;;22.30;99.90;;;;;;5022016;28;20471;-70
2023/08/20 06:11:56;;;;;;;12.57;9.43;;;22.40;99.90;;;;;;5030686;28;20547;-70
2023/08/20 06:14:23;;;;;;;12.40;9.57;;;22.40;99.90;;;;;;5028073;28;20482;-69
2023/08/20 06:16:49;;;;;;;12.50;10.33;;;22.60;99.90;;;;;;5030088;28;20478;-69
2023/08/20 06:19:16;;;;;;;17.07;11.10;;;22.70;99.90;;;;;;5038284;28;20723;-69
2023/08/20 06:21:45;;;;;;;14.77;10.93;;;22.80;99.90;;;;;;5031126;28;20496;-69
2023/08/20 06:24:12;;;;;;;13.83;11.30;;;23.00;99.90;;;;;;5027118;28;20489;-69
2023/08/20 06:26:39;;;;;;;15.57;11.50;;;23.00;99.90;;;;;;5023239;28;20476;-69
2023/08/20 06:29:06;;;;;;;14.60;10.60;;;23.20;99.90;;;;;;5015077;28;21061;-69
2023/08/20 06:31:32;;;;;;;14.43;10.90;;;23.20;99.90;;;;;;5035221;28;20506;-69
2023/08/20 06:34:00;;;;;;;14.67;11.00;;;23.30;99.90;;;;;;5033845;28;20556;-69
2023/08/20 06:36:27;;;;;;;13.30;11.47;;;23.40;99.90;;;;;;5030038;28;21179;-69
2023/08/20 06:38:55;;;;;;;17.10;11.70;;;23.50;99.90;;;;;;5018640;28;20552;-67
2023/08/20 06:41:22;;;;;;;19.47;10.70;;;23.70;99.90;;;;;;5022532;28;20461;-66
2023/08/20 06:43:49;;;;;;;12.83;10.13;;;23.70;99.90;;;;;;5032801;28;20586;-67
2023/08/20 06:46:16;;;;;;;14.20;10.90;;;23.90;99.90;;;;;;5032456;28;20484;-68
2023/08/20 06:48:43;;;;;;;13.93;10.73;;;24.10;99.90;;;;;;5031615;28;20856;-69
2023/08/20 06:51:12;;;;;;;16.57;10.57;;;24.40;99.90;;;;;;5027553;28;20486;-69
2023/08/20 06:53:40;;;;;;;12.27;10.97;;;24.50;99.90;;;;;;5024219;28;20482;-70
2023/08/20 06:56:09;;;;;;;16.83;10.33;;;24.80;99.90;;;;;;5029761;28;20872;-68
2023/08/20 06:58:36;;;;;;;12.60;10.77;;;24.80;99.90;;;;;;5033135;28;21014;-67
2023/08/20 07:01:08;;;;;;;14.00;8.87;;;25.10;99.90;;;;;;5034010;28;20563;-66
2023/08/20 07:03:35;;;;;;;19.97;10.20;;;25.80;99.90;;;;;;5033413;28;20536;-67
2023/08/20 07:06:03;;;;;;;12.10;9.03;;;25.90;99.90;;;;;;5027294;28;20451;-67
2023/08/20 07:08:30;;;;;;;11.13;8.07;;;26.30;99.90;;;;;;5022234;28;20524;-69
2023/08/20 07:10:57;;;;;;;11.27;8.27;;;26.40;99.90;;;;;;5022988;28;20567;-69
2023/08/20 07:13:25;;;;;;;12.53;9.00;;;26.70;99.90;;;;;;5032330;28;21336;-70
2023/08/20 07:15:52;;;;;;;10.77;8.67;;;27.10;99.90;;;;;;5019428;28;20530;-69
2023/08/20 07:18:19;;;;;;;14.60;8.60;;;27.30;99.90;;;;;;5034587;28;20546;-68
2023/08/20 07:20:46;;;;;;;9.57;8.60;;;27.30;99.90;;;;;;5023261;28;20458;-69
2023/08/20 07:23:13;;;;;;;13.27;8.77;;;27.60;99.90;;;;;;5014224;28;20474;-69
2023/08/20 07:25:42;;;;;;;13.00;8.93;;;27.60;99.90;;;;;;5016370;28;20467;-68
2023/08/20 07:28:09;;;;;;;11.50;8.90;;;27.80;99.90;;;;;;5026508;28;20546;-68
2023/08/20 07:30:38;;;;;;;9.83;8.23;;;28.00;99.90;;;;;;5014547;28;20471;-68
2023/08/20 07:33:05;;;;;;;9.90;8.90;;;28.00;99.90;;;;;;5022682;28;20502;-68
2023/08/20 07:35:32;;;;;;;13.17;8.30;;;28.20;99.90;;;;;;5031227;28;20570;-70
2023/08/20 07:37:59;;;;;;;14.90;8.30;;;28.30;99.90;;;;;;5028366;28;20490;-68
2023/08/20 07:40:26;;;;;;;12.70;8.30;;;28.50;99.90;;;;;;5033564;28;20785;-69
2023/08/20 07:42:53;;;;;;;8.90;8.00;;;28.50;99.90;;;;;;5022136;28;20473;-68
2023/08/20 07:45:19;;;;;;;9.30;8.40;;;28.80;99.90;;;;;;5039460;28;20567;-68
2023/08/20 07:47:48;;;;;;;7.10;6.40;;;28.80;99.90;;;;;;5035702;28;20507;-69
2023/08/20 07:50:15;;;;;;;8.43;7.30;;;28.90;99.90;;;;;;5032093;28;20545;-68
2023/08/20 07:52:42;;;;;;;9.00;8.07;;;29.10;99.90;;;;;;5026469;28;20487;-69
2023/08/20 07:55:09;;;;;;;13.20;8.87;;;29.40;99.90;;;;;;5024434;28;20511;-69
2023/08/20 07:57:36;;;;;;;15.47;7.50;;;29.40;99.90;;;;;;5019497;28;20511;-68
2023/08/20 08:00:04;;;;;;;8.57;7.67;;;29.70;99.90;;;;;;5023339;28;20545;-69
2023/08/20 08:02:31;;;;;;;14.13;8.87;;;29.90;99.90;;;;;;5020215;28;20474;-69
2023/08/20 08:04:59;;;;;;;9.40;7.83;;;29.90;99.90;;;;;;5022178;28;20575;-69
2023/08/20 08:07:26;;;;;;;9.53;7.27;;;30.20;99.90;;;;;;5027903;28;21041;-69
2023/08/20 08:09:53;;;;;;;12.10;8.43;;;30.30;99.90;;;;;;5026662;28;20468;-69
2023/08/20 08:12:20;;;;;;;10.30;8.00;;;30.50;99.90;;;;;;5034660;28;20446;-69
2023/08/20 08:14:48;;;;;;;10.63;8.67;;;30.60;99.90;;;;;;5026642;28;20484;-70
2023/08/20 08:17:15;;;;;;;12.60;8.70;;;30.80;99.90;;;;;;5029880;28;20568;-69
2023/08/20 08:19:42;;;;;;;11.73;8.87;;;30.90;99.90;;;;;;5033067;28;20479;-69
2023/08/20 08:22:10;;;;;;;12.53;8.17;;;31.10;99.90;;;;;;5035997;28;20986;-70
2023/08/20 08:24:37;;;;;;;12.20;9.90;;;31.20;99.90;;;;;;5031371;28;20648;-70
2023/08/20 08:27:04;;;;;;;9.47;7.50;;;31.30;99.90;;;;;;5036095;28;20442;-71
2023/08/20 08:29:31;;;;;;;11.27;8.20;;;31.50;99.90;;;;;;5033231;28;20570;-69
2023/08/20 08:31:58;;;;;;;9.20;8.27;;;31.60;99.90;;;;;;5030743;28;20929;-69
2023/08/20 08:34:25;;;;;;;10.30;8.00;;;31.70;99.90;;;;;;5030724;28;20706;-71
2023/08/20 08:36:52;;;;;;;9.93;8.93;;;31.90;99.70;;;;;;5024569;28;20504;-69
2023/08/20 08:39:20;;;;;;;9.33;7.30;;;31.90;98.90;;;;;;5027299;28;20716;-70
2023/08/20 08:41:52;;;;;;;13.33;7.63;;;32.00;99.40;;;;;;5034220;28;20487;-69
2023/08/20 08:44:19;;;;;;;13.07;7.60;;;32.00;98.70;;;;;;5024269;28;20547;-69
2023/08/20 08:46:49;;;;;;;15.53;7.00;;;32.10;98.40;;;;;;5032577;28;20556;-70
2023/08/20 08:49:16;;;;;;;9.30;8.30;;;32.30;99.00;;;;;;5035941;28;20548;-70
2023/08/20 08:51:45;;;;;;;10.53;8.10;;;32.30;98.80;;;;;;5036934;28;21671;-70
2023/08/20 08:54:14;;;;;;;9.30;7.67;;;32.40;98.30;;;;;;5039037;28;20988;-70
2023/08/20 08:56:42;;;;;;;8.43;7.50;;;32.50;98.90;;;;;;5037331;28;20704;-70
2023/08/20 08:59:09;;;;;;;8.03;7.20;;;32.60;98.20;;;;;;5035203;28;20485;-71
2023/08/20 09:01:40;;;;;;;8.40;7.60;;;32.60;98.40;;;;;;5032253;28;20477;-71
2023/08/20 09:04:07;;;;;;;7.30;6.60;;;32.70;97.70;;;;;;5034062;28;21063;-70
2023/08/20 09:06:46;;;;;;;8.27;7.47;;;32.80;98.10;;;;;;5038150;28;20956;-70
2023/08/20 09:09:14;;;;;;;9.30;8.30;;;32.90;98.10;;;;;;5037801;28;20489;-69
2023/08/20 09:11:42;;;;;;;8.17;7.37;;;32.90;99.00;;;;;;5036810;28;20622;-70
2023/08/20 09:14:09;;;;;;;8.43;7.63;;;33.00;98.30;;;;;;5036380;28;22096;-71
2023/08/20 09:16:36;;;;;;;8.63;7.10;;;33.20;97.80;;;;;;5026146;28;20481;-69
2023/08/20 09:19:04;;;;;;;13.20;7.30;;;33.30;97.40;;;;;;5039786;28;21019;-69
2023/08/20 09:21:31;;;;;;;7.87;7.00;;;33.30;96.70;;;;;;5038837;28;20568;-66
2023/08/20 09:23:58;;;;;;;6.43;5.83;;;33.40;97.20;;;;;;5031694;28;20586;-67
2023/08/20 09:26:25;;;;;;;7.87;6.40;;;33.50;95.80;;;;;;5027022;28;20489;-67
2023/08/20 09:28:56;;;;;;;5.70;5.27;;;33.50;96.30;;;;;;5026369;28;20555;-67
2023/08/20 09:31:38;;;;;;;7.97;7.10;;;33.30;94.00;;;;;;5030560;28;20818;-66
2023/08/20 09:34:05;;;;;;;8.90;6.20;;;33.20;95.60;;;;;;5024293;28;20933;-67
2023/08/20 09:36:34;;;;;;;6.70;5.93;;;33.10;93.40;;;;;;5031502;28;20574;-66
2023/08/20 09:39:02;;;;;;;10.83;6.90;;;33.10;93.70;;;;;;5026621;28;20859;-65
2023/08/20 09:41:30;;;;;;;8.60;5.37;;;33.00;94.30;;;;;;5035475;28;20480;-68
2023/08/20 09:43:59;;;;;;;6.47;5.87;;;32.90;93.40;;;;;;5036864;28;20472;-69
2023/08/20 09:46:27;;;;;;;6.50;4.63;;;32.90;93.50;;;;;;5038174;28;20599;-70
2023/08/20 09:48:56;;;;;;;6.00;5.40;;;33.00;93.00;;;;;;5032613;28;20689;-68
2023/08/20 09:51:27;;;;;;;7.17;5.83;;;32.80;92.50;;;;;;5042813;28;21204;-70
2023/08/20 09:54:01;;;;;;;6.07;5.47;;;32.60;92.20;;;;;;5026599;28;20893;-70
2023/08/20 09:56:30;;;;;;;7.97;5.37;;;32.60;92.60;;;;;;5013172;28;20487;-68
2023/08/20 09:59:01;;;;;;;5.90;5.03;;;32.60;92.80;;;;;;5023938;28;20940;-69
2023/08/20 10:01:29;;;;;;;6.03;5.43;;;32.70;93.20;;;;;;5022146;28;21292;-69
2023/08/20 10:03:56;;;;;;;8.00;4.80;;;32.60;93.30;;;;;;5031962;28;20478;-68
2023/08/20 10:06:24;;;;;;;6.30;4.80;;;32.90;95.10;;;;;;5024177;28;21107;-71
2023/08/20 10:08:52;;;;;;;5.13;4.63;;;33.40;94.50;;;;;;5033806;28;20580;-70
2023/08/20 10:11:19;;;;;;;5.73;5.17;;;33.50;94.30;;;;;;5028044;28;20493;-68
2023/08/20 10:13:46;;;;;;;5.97;4.43;;;33.80;93.00;;;;;;5037080;28;20994;-68
2023/08/20 10:16:19;;;;;;;5.27;4.77;;;33.90;94.10;;;;;;5023467;28;20504;-69
2023/08/20 10:18:47;;;;;;;4.40;3.93;;;34.10;93.80;;;;;;5029116;28;20880;-69
2023/08/20 10:21:14;;;;;;;4.10;3.70;;;34.20;91.70;;;;;;5021451;28;20563;-68
2023/08/20 10:23:42;;;;;;;5.57;4.23;;;34.20;91.70;;;;;;5023110;28;20646;-70
2023/08/20 10:26:09;;;;;;;7.93;3.70;;;34.20;92.10;;;;;;5029246;28;20494;-70
2023/08/20 10:28:37;;;;;;;3.60;3.30;;;34.20;91.70;;;;;;5033644;28;20927;-70
2023/08/20 10:31:06;;;;;;;4.20;3.80;;;34.40;91.40;;;;;;5026061;28;20592;-68
2023/08/20 10:33:35;;;;;;;4.77;4.03;;;34.50;92.00;;;;;;5029907;28;20484;-68
2023/08/20 10:36:10;;;;;;;4.00;3.60;;;34.60;91.90;;;;;;5026510;28;20588;-70
2023/08/20 10:38:38;;;;;;;3.80;3.50;;;34.70;91.50;;;;;;5015601;28;20472;-69
2023/08/20 10:41:08;;;;;;;5.70;4.10;;;34.80;91.50;;;;;;5033627;28;20546;-68
2023/08/20 10:43:37;;;;;;;4.70;3.90;;;34.90;91.10;;;;;;5035581;28;20989;-70
2023/08/20 10:46:09;;;;;;;9.80;4.20;;;35.00;90.70;;;;;;5017922;28;20492;-69
2023/08/20 10:48:38;;;;;;;7.20;4.60;;;35.10;91.30;;;;;;5003909;28;20489;-69
2023/08/20 10:51:12;;;;;;;13.60;5.00;;;35.00;91.30;;;;;;5015772;28;20490;-66
2023/08/20 10:53:41;;;;;;;6.27;4.63;;;35.10;92.20;;;;;;5025718;28;20919;-65
2023/08/20 10:56:13;;;;;;;5.20;4.00;;;35.00;90.80;;;;;;5030981;28;21026;-66
2023/08/20 10:58:42;;;;;;;5.40;4.80;;;35.00;90.70;;;;;;5023687;28;20572;-67
2023/08/20 11:01:22;;;;;;;5.10;4.70;;;34.90;91.90;;;;;;5019505;28;20472;-65
2023/08/20 11:03:51;;;;;;;6.43;5.10;;;35.00;92.50;;;;;;5020684;28;20562;-66
2023/08/20 11:06:19;;;;;;;4.83;4.37;;;34.90;92.10;;;;;;5027341;28;20564;-67
2023/08/20 11:08:46;;;;;;;6.00;5.27;;;34.90;91.40;;;;;;5022622;28;20930;-67
2023/08/20 11:11:13;;;;;;;5.20;4.70;;;34.90;92.10;;;;;;5024489;28;20496;-66
2023/08/20 11:13:42;;;;;;;9.60;5.07;;;35.00;91.10;;;;;;5016264;28;20468;-65
2023/08/20 11:16:10;;;;;;;6.80;5.30;;;34.80;91.60;;;;;;5025243;28;20792;-66
2023/08/20 11:18:37;;;;;;;8.00;4.93;;;34.90;93.80;;;;;;5026840;28;20511;-67
2023/08/20 11:21:06;;;;;;;5.70;4.77;;;34.70;89.30;;;;;;5013096;28;20519;-65
2023/08/20 11:23:33;;;;;;;5.93;4.40;;;34.60;91.10;;;;;;5039584;28;20491;-65
2023/08/20 11:26:00;;;;;;;5.60;4.90;;;34.70;92.70;;;;;;5018170;28;20847;-66
2023/08/20 11:28:28;;;;;;;8.80;4.70;;;34.70;91.00;;;;;;5033388;28;21039;-66
2023/08/20 11:30:56;;;;;;;4.33;4.03;;;34.90;91.80;;;;;;5010581;28;20475;-67
2023/08/20 11:33:26;;;;;;;5.10;3.93;;;35.10;92.00;;;;;;5023528;28;21261;-66
2023/08/20 11:35:52;;;;;;;9.77;4.47;;;35.30;89.40;;;;;;5021351;28;20472;-67
2023/08/20 11:38:22;;;;;;;5.00;4.60;;;35.20;88.40;;;;;;5024271;28;20491;-66
2023/08/20 11:40:49;;;;;;;6.83;4.57;;;35.10;91.70;;;;;;5012050;28;20475;-66
2023/08/20 11:43:16;;;;;;;10.73;4.43;;;35.10;91.80;;;;;;5024223;28;21032;-66
2023/08/20 11:45:50;;;;;;;5.57;4.43;;;35.30;91.90;;;;;;5022743;28;20762;-66
2023/08/20 11:48:17;;;;;;;6.70;4.37;;;35.60;90.90;;;;;;5034070;28;20930;-66
2023/08/20 11:50:45;;;;;;;4.33;3.93;;;35.70;91.60;;;;;;5023007;28;20515;-69
2023/08/20 11:53:12;;;;;;;4.63;4.23;;;35.70;90.40;;;;;;5043966;28;20564;-70
2023/08/20 11:55:42;;;;;;;8.53;4.63;;;35.60;91.20;;;;;;5014052;28;20541;-70
2023/08/20 11:58:12;;;;;;;9.50;5.00;;;35.80;91.40;;;;;;5025212;28;20487;-68
2023/08/20 12:00:39;;;;;;;7.90;5.03;;;35.80;91.70;;;;;;4997159;28;20866;-70
2023/08/20 12:03:07;;;;;;;4.87;4.37;;;36.00;90.20;;;;;;5022654;28;20492;-66
2023/08/20 12:05:41;;;;;;;4.47;4.00;;;36.30;90.70;;;;;;5035534;28;20472;-66
2023/08/20 12:08:08;;;;;;;4.70;4.20;;;36.40;91.00;;;;;;5020549;28;20840;-65
2023/08/20 12:10:35;;;;;;;5.27;4.80;;;36.30;89.60;;;;;;5016458;28;20507;-66
2023/08/20 12:13:05;;;;;;;5.50;3.97;;;36.40;89.70;;;;;;5028789;28;20542;-65
2023/08/20 12:15:32;;;;;;;6.90;5.60;;;36.20;84.30;;;;;;5027783;28;20593;-66
2023/08/20 12:18:04;;;;;;;5.97;4.70;;;35.90;84.40;;;;;;5025645;28;20530;-65
2023/08/20 12:20:32;;;;;;;9.53;6.57;;;35.80;87.80;;;;;;5009401;28;20574;-65
2023/08/20 12:23:03;;;;;;;6.73;4.50;;;35.90;89.60;;;;;;5019064;28;20480;-70
2023/08/20 12:25:33;;;;;;;5.20;4.70;;;35.90;90.00;;;;;;5035333;28;20520;-70
2023/08/20 12:28:00;;;;;;;6.43;4.63;;;35.90;88.60;;;;;;5022799;28;20485;-68
2023/08/20 12:30:28;;;;;;;5.87;5.37;;;35.50;84.60;;;;;;5018432;28;20827;-69
2023/08/20 12:32:55;;;;;;;11.60;5.97;;;35.30;86.40;;;;;;5021174;28;20488;-70
2023/08/20 12:35:22;;;;;;;8.97;5.83;;;35.20;87.30;;;;;;5024582;28;20579;-69
2023/08/20 12:37:49;;;;;;;5.00;4.60;;;35.00;87.50;;;;;;5002238;28;20487;-68
2023/08/20 12:40:16;;;;;;;8.93;4.50;;;34.80;89.80;;;;;;5038794;28;20479;-68
2023/08/20 12:42:44;;;;;;;6.03;4.93;;;34.80;90.60;;;;;;5025976;28;20479;-70
2023/08/20 12:45:13;;;;;;;6.57;4.23;;;34.90;89.30;;;;;;5036393;28;20807;-69
2023/08/20 12:47:41;;;;;;;7.10;5.93;;;35.00;88.80;;;;;;5026699;28;20489;-68